• Join FlightAware (Why Join?)
  • Login
  • US Flag 
07:05PM EDT


 

Airport Tracker/Info


-or-


 

Live Flight TrackerFlight Track Log ✈ N400PU ✈ 24-Nov-2012 ✈ KMLI - KLAF

Flight Track Log - Related Links

Times and Time Zones

All times are in EST time to prevent confusion due to time zone crossing. See the N400PU flight status page for this flight to view local times or setup timezone preferences in your user account.

Time Position Orientation Groundspeed Altitude Reporting Facility
EST Latitude Longitude Course Direction KTS MPH feet Rate Location/Type
12:20PM 41.4286 -90.5906 124° Southeast 188 216 3,900  Level Chicago Center
12:21PM 41.4072 -90.6511 245° Southwest 188 216 4,300 1,200 Climbing Chicago Center
12:22PM 41.3467 -90.6553 183° South 222 255 6,400 2,100 Climbing Chicago Center
12:23PM 41.2844 -90.6264 161° South 246 283 8,600 2,400 Climbing Chicago Center
12:24PM 41.2542 -90.5292 112° Southeast 304 350 11,300 2,880 Climbing Chicago Center
12:25PM 41.2303 -90.4267 107° East 304 350 14,400 3,120 Climbing Chicago Center
12:26PM 41.2496 -89.7856 124° Southeast  Level Estimated
12:26PM 41.1917 -90.3267 117° Southeast 304 350 17,600  Level Chicago Center
12:27PM 41.1317 -90.2403 133° Southeast 305 351 19,000 660 Climbing Chicago Center
12:28PM 41.0575 -90.1375 134° Southeast 345 397 19,000  Level Chicago Center
12:29PM 40.9936 -90.0183 125° Southeast 445 512 19,000  Level Chicago Center
12:30PM 40.9714 -89.8614 101° East 439 505 19,000  Level Chicago Center
12:31PM 40.9408 -89.7072 105° East 439 505 19,000  Level Chicago Center
12:32PM 40.9142 -89.5533 103° East 434 499 19,000  Level Chicago Center
12:33PM 40.8872 -89.3883 102° East 434 499 19,000  Level Chicago Center
12:34PM 40.8578 -89.2319 104° East 439 505 19,000  Level Chicago Center
12:35PM 40.8306 -89.0700 102° East 439 505 19,000  Level Chicago Center
12:36PM 40.8008 -88.9167 104° East 439 505 19,000  Level Chicago Center
12:37PM 40.7689 -88.7606 105° East 434 499 19,000  Level Chicago Center
12:38PM 40.7408 -88.6044 103° East 429 494 19,000 -240 Level Chicago Center
12:39PM 40.7061 -88.4297 105° East 434 499 18,600 -600 Descending Chicago Center
12:40PM 40.6800 -88.2794 103° East 429 494 17,900 -1,080 Descending Chicago Center
12:41PM 40.6492 -88.1322 105° East 417 480 16,500 -1,500 Descending Chicago Center
12:42PM 40.6225 -87.9850 103° East 417 480 15,000 -1,560 Descending Chicago Center
12:43PM 40.5936 -87.8378 104° East 412 474 13,400 -1,680 Descending Chicago Center
12:44PM 40.5667 -87.7019 105° East 399 459 11,700 -1,620 Descending Chicago Center
12:45PM 40.5461 -87.5847 103° East 364 419 10,200 -1,440 Descending Chicago Center
12:46PM 40.5308 -87.5389 114° Southeast 303 349 9,500 -1,620 Descending Chicago Center
12:46PM 40.5258 -87.4869 97° East 323 372 8,600 -2,040 Descending Chicago Center
12:47PM 40.5103 -87.4275 109° East 271 312 7,300 -2,040 Descending Chicago Center
12:47PM 40.5075 -87.3919 96° East 283 326 6,600 -1,980 Descending Chicago Center
12:48PM 40.4858 -87.3381 118° Southeast 263 303 5,300 -1,920 Descending Chicago Center
12:48PM 40.4831 -87.3081 97° East 261 300 4,700 -1,320 Descending Chicago Center
12:49PM 40.4614 -87.2542 118° Southeast 252 290 4,000 -720 Descending Chicago Center
12:49PM 40.4586 -87.2269 98° East 240 276 4,000  Level Chicago Center
12:50PM 40.4369 -87.1731 118° Southeast 239 275 4,000  Level Chicago Center
12:50PM 40.4322 -87.1433 102° East 240 276 4,000  Level Chicago Center
12:51PM 40.4144 -87.0919 114° Southeast 236 272 4,000  Level Chicago Center
12:51PM 40.4075 -87.0650 109° East 233 268 4,000  Level Chicago Center
12:52PM 40.3878 -87.0111 116° Southeast 237 273 4,000  Level Chicago Center
12:52PM 40.3853 -86.9867 98° East 233 268 4,000  Level Chicago Center
12:53PM 40.3653 -86.9356 117° Southeast 236 272 4,000  Level Chicago Center
12:53PM 40.3606 -86.9058 102° East 233 268 4,000  Level Chicago Center
12:54PM 40.3406 -86.8519 116° Southeast 233 268 4,000  Level Chicago Center
12:54PM 40.3358 -86.8306 106° East 233 268 4,000 -540 Level Chicago Center
12:55PM 40.3158 -86.7739 115° Southeast 223 257 3,500 -900 Descending Chicago Center
12:55PM 40.3133 -86.7522 99° East 233 268 3,100 -900 Descending Chicago Center
12:56PM 40.3228 -86.7056 75° East 213 245 2,600 -300 Descending Chicago Center
12:57PM 40.3747 -86.6981 North 184 212 2,600  Level Chicago Center
12:58PM 40.3864 -86.7575 284° West 173 199 2,600 -60 Level Chicago Center
12:59PM 40.3961 -86.8117 283° West 150 173 2,500 -420 Descending Chicago Center
01:00PM 40.4011 -86.8553 279° West 128 147 1,800 -660 Descending Chicago Center
01:01PM 40.4042 -86.8961 276° West 116 133 1,200 -600 Descending Chicago Center